createdAt,value
2023-02-15T00:00:23.364Z,1022.11
2023-02-15T00:00:55.857Z,1022.13
2023-02-15T00:01:28.288Z,1022.14
2023-02-15T00:02:00.806Z,1022.13
2023-02-15T00:02:33.298Z,1022.13
2023-02-15T00:03:05.787Z,1022.14
2023-02-15T00:03:38.208Z,1022.14
2023-02-15T00:04:10.679Z,1022.15
2023-02-15T00:04:43.214Z,1022.15
2023-02-15T00:05:15.653Z,1022.15
2023-02-15T00:05:48.107Z,1022.15
2023-02-15T00:06:20.557Z,1022.17
2023-02-15T00:06:53.009Z,1022.15
2023-02-15T00:07:25.461Z,1022.14
2023-02-15T00:07:57.912Z,1022.13
2023-02-15T00:08:30.438Z,1022.11
2023-02-15T00:09:02.867Z,1022.11
2023-02-15T00:09:35.393Z,1022.10
2023-02-15T00:10:07.856Z,1022.10
2023-02-15T00:10:40.316Z,1022.09
2023-02-15T00:11:12.799Z,1022.10
2023-02-15T00:11:45.268Z,1022.10
2023-02-15T00:12:17.764Z,1022.09
2023-02-15T00:12:50.208Z,1022.10
2023-02-15T00:13:22.656Z,1022.12
2023-02-15T00:13:55.104Z,1022.13
2023-02-15T00:14:27.535Z,1022.13
2023-02-15T00:14:59.999Z,1022.13
2023-02-15T00:15:32.433Z,1022.13
2023-02-15T00:16:04.895Z,1022.12
2023-02-15T00:16:37.386Z,1022.12
2023-02-15T00:17:09.812Z,1022.11
2023-02-15T00:17:42.400Z,1022.12
2023-02-15T00:18:14.830Z,1022.12
2023-02-15T00:18:47.316Z,1022.11
2023-02-15T00:19:19.852Z,1022.11
2023-02-15T00:19:52.261Z,1022.10
2023-02-15T00:20:24.706Z,1022.11
2023-02-15T00:20:57.165Z,1022.11
2023-02-15T00:21:29.659Z,1022.10
2023-02-15T00:22:02.155Z,1022.10
2023-02-15T00:22:34.716Z,1022.11
2023-02-15T00:23:07.154Z,1022.11
2023-02-15T00:23:39.627Z,1022.11
2023-02-15T00:24:12.110Z,1022.10
2023-02-15T00:24:44.559Z,1022.09
2023-02-15T00:25:17.080Z,1022.08
2023-02-15T00:25:49.532Z,1022.09
2023-02-15T00:26:21.990Z,1022.06
2023-02-15T00:26:54.467Z,1022.05
2023-02-15T00:27:26.917Z,1022.04
2023-02-15T00:27:59.378Z,1022.05
2023-02-15T00:28:31.831Z,1022.05
2023-02-15T00:29:04.260Z,1022.04
2023-02-15T00:29:36.690Z,1022.05
2023-02-15T00:30:09.194Z,1022.05
2023-02-15T00:30:41.649Z,1022.05
2023-02-15T00:31:14.092Z,1022.03
2023-02-15T00:31:46.553Z,1022.03
2023-02-15T00:32:18.973Z,1022.03
2023-02-15T00:32:51.416Z,1022.03
2023-02-15T00:33:23.838Z,1022.02
2023-02-15T00:33:56.331Z,1022.01
2023-02-15T00:34:28.835Z,1022.01
2023-02-15T00:35:01.305Z,1022.00
2023-02-15T00:35:33.719Z,1021.99
2023-02-15T00:36:06.211Z,1021.98
2023-02-15T00:36:38.684Z,1021.97
2023-02-15T00:37:11.117Z,1021.96
2023-02-15T00:37:43.597Z,1021.96
2023-02-15T00:38:16.159Z,1021.97
2023-02-15T00:38:48.648Z,1021.97
2023-02-15T00:39:21.098Z,1021.96
2023-02-15T00:39:53.598Z,1021.97
2023-02-15T00:40:26.045Z,1021.96
2023-02-15T00:40:58.567Z,1021.95
2023-02-15T00:41:30.990Z,1021.95
2023-02-15T00:42:03.473Z,1021.95
2023-02-15T00:42:36.011Z,1021.94
2023-02-15T00:43:08.545Z,1021.92
2023-02-15T00:43:40.972Z,1021.90
2023-02-15T00:44:13.507Z,1021.91
2023-02-15T00:44:45.961Z,1021.91
2023-02-15T00:45:18.424Z,1021.89
2023-02-15T00:45:50.915Z,1021.89
2023-02-15T00:46:23.361Z,1021.88
2023-02-15T00:46:55.825Z,1021.88
2023-02-15T00:47:28.290Z,1021.87
2023-02-15T00:48:00.844Z,1021.88
2023-02-15T00:48:33.333Z,1021.88
2023-02-15T00:49:05.850Z,1021.88
2023-02-15T00:49:38.371Z,1021.87
2023-02-15T00:50:10.873Z,1021.88
2023-02-15T00:50:43.342Z,1021.86
2023-02-15T00:51:15.787Z,1021.86
2023-02-15T00:51:48.266Z,1021.86
2023-02-15T00:52:20.746Z,1021.85
2023-02-15T00:52:53.214Z,1021.84
2023-02-15T00:53:25.681Z,1021.85
2023-02-15T00:53:58.113Z,1021.84
2023-02-15T00:54:30.545Z,1021.84
2023-02-15T00:55:02.963Z,1021.84
2023-02-15T00:55:35.397Z,1021.83
2023-02-15T00:56:07.893Z,1021.82
2023-02-15T00:56:40.453Z,1021.80
2023-02-15T00:57:12.894Z,1021.79
2023-02-15T00:57:45.388Z,1021.80
2023-02-15T00:58:17.844Z,1021.76
2023-02-15T00:58:50.348Z,1021.77
2023-02-15T00:59:22.852Z,1021.75
2023-02-15T00:59:55.270Z,1021.74
2023-02-15T01:00:27.698Z,1021.73
2023-02-15T01:01:00.203Z,1021.72
2023-02-15T01:01:32.613Z,1021.73
2023-02-15T01:02:05.062Z,1021.73
2023-02-15T01:02:37.473Z,1021.74
2023-02-15T01:03:09.943Z,1021.74
2023-02-15T01:03:42.429Z,1021.73
2023-02-15T01:04:14.901Z,1021.75
2023-02-15T01:04:47.328Z,1021.75
2023-02-15T01:05:19.815Z,1021.73
2023-02-15T01:05:52.285Z,1021.74
2023-02-15T01:06:24.759Z,1021.74
2023-02-15T01:06:57.219Z,1021.75
2023-02-15T01:07:29.694Z,1021.74
2023-02-15T01:08:02.169Z,1021.73
2023-02-15T01:08:34.650Z,1021.71
2023-02-15T01:09:07.118Z,1021.72
2023-02-15T01:09:39.573Z,1021.69
2023-02-15T01:10:12.016Z,1021.68
2023-02-15T01:10:44.425Z,1021.68
2023-02-15T01:11:16.897Z,1021.66
2023-02-15T01:11:49.406Z,1021.65
2023-02-15T01:12:21.848Z,1021.65
2023-02-15T01:12:54.382Z,1021.65
2023-02-15T01:13:26.858Z,1021.65
2023-02-15T01:13:59.322Z,1021.64
2023-02-15T01:14:31.827Z,1021.65
2023-02-15T01:15:04.399Z,1021.63
2023-02-15T01:15:36.771Z,1021.64
2023-02-15T01:16:09.323Z,1021.64
2023-02-15T01:16:41.691Z,1021.65
2023-02-15T01:17:14.163Z,1021.65
2023-02-15T01:17:46.754Z,1021.64
2023-02-15T01:18:19.075Z,1021.64
2023-02-15T01:18:51.550Z,1021.62
2023-02-15T01:19:24.018Z,1021.64
2023-02-15T01:19:56.507Z,1021.63
2023-02-15T01:20:28.989Z,1021.62
2023-02-15T01:21:01.545Z,1021.61
2023-02-15T01:21:34.026Z,1021.60
2023-02-15T01:22:06.549Z,1021.61
2023-02-15T01:22:38.978Z,1021.61
2023-02-15T01:23:11.427Z,1021.60
2023-02-15T01:23:43.911Z,1021.59
2023-02-15T01:24:16.341Z,1021.60
2023-02-15T01:24:48.929Z,1021.60
2023-02-15T01:25:21.399Z,1021.59
2023-02-15T01:25:53.860Z,1021.61
2023-02-15T01:26:26.308Z,1021.58
2023-02-15T01:26:58.730Z,1021.59
2023-02-15T01:27:31.197Z,1021.59
2023-02-15T01:28:03.653Z,1021.59
2023-02-15T01:28:36.127Z,1021.59
2023-02-15T01:29:08.586Z,1021.59
2023-02-15T01:29:41.061Z,1021.58
2023-02-15T01:30:13.615Z,1021.58
2023-02-15T01:30:46.088Z,1021.55
2023-02-15T01:31:18.557Z,1021.56
2023-02-15T01:31:51.078Z,1021.57
2023-02-15T01:32:23.453Z,1021.56
2023-02-15T01:32:55.921Z,1021.55
2023-02-15T01:33:28.408Z,1021.56
2023-02-15T01:34:00.897Z,1021.54
2023-02-15T01:34:33.348Z,1021.53
2023-02-15T01:35:05.822Z,1021.52
2023-02-15T01:35:38.270Z,1021.53
2023-02-15T01:36:10.746Z,1021.50
2023-02-15T01:36:43.182Z,1021.52
2023-02-15T01:37:15.631Z,1021.51
2023-02-15T01:37:48.117Z,1021.50
2023-02-15T01:38:20.579Z,1021.50
2023-02-15T01:38:53.023Z,1021.50
2023-02-15T01:39:25.525Z,1021.48
2023-02-15T01:39:57.961Z,1021.48
2023-02-15T01:40:30.414Z,1021.47
2023-02-15T01:41:02.935Z,1021.47
2023-02-15T01:41:35.513Z,1021.46
2023-02-15T01:42:07.993Z,1021.46
2023-02-15T01:42:40.485Z,1021.44
2023-02-15T01:43:12.971Z,1021.44
2023-02-15T01:43:45.438Z,1021.42
2023-02-15T01:44:17.886Z,1021.42
2023-02-15T01:44:50.355Z,1021.42
2023-02-15T01:45:22.779Z,1021.40
2023-02-15T01:45:55.351Z,1021.38
2023-02-15T01:46:27.838Z,1021.37
2023-02-15T01:47:00.240Z,1021.35
2023-02-15T01:47:32.715Z,1021.35
2023-02-15T01:48:05.280Z,1021.36
2023-02-15T01:48:37.743Z,1021.35
2023-02-15T01:49:10.179Z,1021.33
2023-02-15T01:49:42.662Z,1021.31
2023-02-15T01:50:15.153Z,1021.31
2023-02-15T01:50:47.647Z,1021.29
2023-02-15T01:51:20.054Z,1021.29
2023-02-15T01:51:52.507Z,1021.30
2023-02-15T01:52:24.976Z,1021.31
2023-02-15T01:52:57.448Z,1021.30
2023-02-15T01:53:29.895Z,1021.29
2023-02-15T01:54:02.397Z,1021.31
2023-02-15T01:54:34.842Z,1021.32
2023-02-15T01:55:08.014Z,1021.32
2023-02-15T01:55:39.829Z,1021.33
2023-02-15T01:56:12.337Z,1021.32
2023-02-15T01:56:44.834Z,1021.33
2023-02-15T01:57:17.340Z,1021.34
2023-02-15T01:57:49.863Z,1021.32
2023-02-15T01:58:22.294Z,1021.32
2023-02-15T01:58:54.780Z,1021.33
2023-02-15T01:59:27.375Z,1021.34
2023-02-15T01:59:59.873Z,1021.35
2023-02-15T02:00:32.337Z,1021.35
2023-02-15T02:01:04.877Z,1021.33
2023-02-15T02:01:37.293Z,1021.32
2023-02-15T02:02:09.730Z,1021.30
2023-02-15T02:02:42.276Z,1021.29
2023-02-15T02:03:14.743Z,1021.30
2023-02-15T02:03:47.280Z,1021.30
2023-02-15T02:04:19.774Z,1021.29
2023-02-15T02:04:52.235Z,1021.29
2023-02-15T02:05:24.766Z,1021.26
2023-02-15T02:05:57.222Z,1021.28
2023-02-15T02:06:29.682Z,1021.27
2023-02-15T02:07:02.251Z,1021.26
2023-02-15T02:07:34.664Z,1021.23
2023-02-15T02:08:07.130Z,1021.22
2023-02-15T02:08:39.597Z,1021.22
2023-02-15T02:09:12.065Z,1021.22
2023-02-15T02:09:44.556Z,1021.21
2023-02-15T02:10:17.027Z,1021.20
2023-02-15T02:10:49.649Z,1021.20
2023-02-15T02:11:22.132Z,1021.18
2023-02-15T02:11:54.599Z,1021.18
2023-02-15T02:12:27.134Z,1021.17
2023-02-15T02:12:59.666Z,1021.17
2023-02-15T02:13:32.211Z,1021.17
2023-02-15T02:14:04.684Z,1021.19
2023-02-15T02:14:37.260Z,1021.19
2023-02-15T02:15:09.704Z,1021.20
2023-02-15T02:15:42.169Z,1021.19
2023-02-15T02:16:14.663Z,1021.19
2023-02-15T02:16:47.078Z,1021.17
2023-02-15T02:17:19.633Z,1021.15
2023-02-15T02:17:52.183Z,1021.14
2023-02-15T02:18:24.642Z,1021.14
2023-02-15T02:18:57.154Z,1021.13
2023-02-15T02:19:29.632Z,1021.11
2023-02-15T02:20:02.157Z,1021.10
2023-02-15T02:20:34.678Z,1021.09
2023-02-15T02:21:07.151Z,1021.10
2023-02-15T02:21:39.618Z,1021.07
2023-02-15T02:22:12.048Z,1021.08
2023-02-15T02:22:44.564Z,1021.06
2023-02-15T02:23:17.038Z,1021.06
2023-02-15T02:23:49.523Z,1021.05
2023-02-15T02:24:22.063Z,1021.04
2023-02-15T02:24:54.554Z,1021.05
2023-02-15T02:25:27.044Z,1021.05
2023-02-15T02:25:59.915Z,1021.07
2023-02-15T02:26:32.038Z,1021.06
2023-02-15T02:27:04.505Z,1021.05
2023-02-15T02:27:37.017Z,1021.05
2023-02-15T02:28:09.520Z,1021.05
2023-02-15T02:28:41.939Z,1021.06
2023-02-15T02:29:14.385Z,1021.06
2023-02-15T02:29:46.837Z,1021.06
2023-02-15T02:30:19.324Z,1021.06
2023-02-15T02:30:51.914Z,1021.04
2023-02-15T02:31:24.500Z,1021.04
2023-02-15T02:31:56.781Z,1021.03
2023-02-15T02:32:29.213Z,1021.03
2023-02-15T02:33:01.670Z,1021.03
2023-02-15T02:33:34.156Z,1021.03
2023-02-15T02:34:06.651Z,1021.00
2023-02-15T02:34:39.098Z,1021.02
2023-02-15T02:35:11.535Z,1021.02
2023-02-15T02:35:43.999Z,1021.01
2023-02-15T02:36:16.544Z,1021.03
2023-02-15T02:36:49.006Z,1021.03
2023-02-15T02:37:21.466Z,1021.03
2023-02-15T02:37:53.935Z,1021.04
2023-02-15T02:38:26.400Z,1021.03
2023-02-15T02:38:58.935Z,1021.02
2023-02-15T02:39:31.398Z,1021.02
2023-02-15T02:40:03.887Z,1021.03
2023-02-15T02:40:36.345Z,1021.01
2023-02-15T02:41:08.816Z,1021.02
2023-02-15T02:41:41.274Z,1021.01
2023-02-15T02:42:13.748Z,1021.01
2023-02-15T02:42:46.229Z,1020.99
2023-02-15T02:43:18.696Z,1021.00
2023-02-15T02:43:51.221Z,1021.00
2023-02-15T02:44:23.657Z,1021.00
2023-02-15T02:44:56.145Z,1021.00
2023-02-15T02:45:28.634Z,1021.02
2023-02-15T02:46:01.412Z,1021.00
2023-02-15T02:46:33.695Z,1021.00
2023-02-15T02:47:06.131Z,1021.01
2023-02-15T02:47:38.596Z,1021.00
2023-02-15T02:48:11.090Z,1020.99
2023-02-15T02:48:43.592Z,1021.00
2023-02-15T02:49:16.069Z,1021.00
2023-02-15T02:49:48.601Z,1020.97
2023-02-15T02:50:21.100Z,1020.96
2023-02-15T02:50:53.576Z,1020.97
2023-02-15T02:51:26.081Z,1020.96
2023-02-15T02:51:58.521Z,1020.95
2023-02-15T02:52:30.995Z,1020.94
2023-02-15T02:53:03.487Z,1020.95
2023-02-15T02:53:36.011Z,1020.94
2023-02-15T02:54:08.486Z,1020.93
2023-02-15T02:54:40.983Z,1020.92
2023-02-15T02:55:13.520Z,1020.91
2023-02-15T02:55:45.981Z,1020.92
2023-02-15T02:56:18.463Z,1020.92
2023-02-15T02:56:50.941Z,1020.92
2023-02-15T02:57:23.469Z,1020.89
2023-02-15T02:57:55.897Z,1020.89
2023-02-15T02:58:28.442Z,1020.88
2023-02-15T02:59:00.972Z,1020.86
2023-02-15T02:59:33.443Z,1020.87
2023-02-15T03:00:05.952Z,1020.86
2023-02-15T03:00:38.425Z,1020.85
2023-02-15T03:01:10.926Z,1020.85
2023-02-15T03:01:43.468Z,1020.84
2023-02-15T03:02:15.882Z,1020.84
2023-02-15T03:02:48.378Z,1020.83
2023-02-15T03:03:20.811Z,1020.83
2023-02-15T03:03:53.266Z,1020.82
2023-02-15T03:04:25.745Z,1020.82
2023-02-15T03:04:58.217Z,1020.84
2023-02-15T03:05:30.733Z,1020.83
2023-02-15T03:06:03.475Z,1020.83
2023-02-15T03:06:35.745Z,1020.82
2023-02-15T03:07:08.232Z,1020.81
2023-02-15T03:07:40.704Z,1020.79
2023-02-15T03:08:13.179Z,1020.80
2023-02-15T03:08:45.661Z,1020.77
2023-02-15T03:09:18.104Z,1020.77
2023-02-15T03:09:50.693Z,1020.76
2023-02-15T03:10:23.219Z,1020.73
2023-02-15T03:10:55.679Z,1020.74
2023-02-15T03:11:28.174Z,1020.72
2023-02-15T03:12:00.686Z,1020.72
2023-02-15T03:12:33.139Z,1020.72
2023-02-15T03:13:05.633Z,1020.73
2023-02-15T03:13:38.083Z,1020.72
2023-02-15T03:14:10.530Z,1020.72
2023-02-15T03:14:43.026Z,1020.70
2023-02-15T03:15:15.494Z,1020.69
2023-02-15T03:15:48.006Z,1020.69
2023-02-15T03:16:20.450Z,1020.69
2023-02-15T03:16:52.903Z,1020.68
2023-02-15T03:17:25.376Z,1020.70
2023-02-15T03:17:57.929Z,1020.70
2023-02-15T03:18:30.394Z,1020.70
2023-02-15T03:19:02.844Z,1020.72
2023-02-15T03:19:35.320Z,1020.72
2023-02-15T03:20:07.774Z,1020.74
2023-02-15T03:20:40.293Z,1020.75
2023-02-15T03:21:12.739Z,1020.75
2023-02-15T03:21:45.293Z,1020.76
2023-02-15T03:22:17.777Z,1020.76
2023-02-15T03:22:50.293Z,1020.76
2023-02-15T03:23:22.784Z,1020.75
2023-02-15T03:23:55.276Z,1020.74
2023-02-15T03:24:27.826Z,1020.73
2023-02-15T03:25:00.341Z,1020.72
2023-02-15T03:25:32.866Z,1020.72
2023-02-15T03:26:05.359Z,1020.71
2023-02-15T03:26:37.884Z,1020.69
2023-02-15T03:27:10.404Z,1020.70
2023-02-15T03:27:42.901Z,1020.67
2023-02-15T03:28:15.415Z,1020.67
2023-02-15T03:28:47.926Z,1020.66
2023-02-15T03:29:20.406Z,1020.66
2023-02-15T03:29:52.952Z,1020.66
2023-02-15T03:30:25.422Z,1020.66
2023-02-15T03:30:57.951Z,1020.66
2023-02-15T03:31:30.481Z,1020.67
2023-02-15T03:32:02.980Z,1020.67
2023-02-15T03:32:35.352Z,1020.66
2023-02-15T03:33:07.878Z,1020.66
2023-02-15T03:33:40.350Z,1020.66
2023-02-15T03:34:12.906Z,1020.67
2023-02-15T03:34:45.383Z,1020.66
2023-02-15T03:35:17.842Z,1020.66
2023-02-15T03:35:50.402Z,1020.66
2023-02-15T03:36:22.872Z,1020.68
2023-02-15T03:36:55.384Z,1020.68
2023-02-15T03:37:27.837Z,1020.70
2023-02-15T03:38:00.290Z,1020.69
2023-02-15T03:38:32.764Z,1020.69
2023-02-15T03:39:05.213Z,1020.71
2023-02-15T03:39:37.684Z,1020.72
2023-02-15T03:40:10.173Z,1020.72
2023-02-15T03:40:42.648Z,1020.71
2023-02-15T03:41:15.108Z,1020.71
2023-02-15T03:41:47.578Z,1020.71
2023-02-15T03:42:20.057Z,1020.68
2023-02-15T03:42:52.555Z,1020.67
2023-02-15T03:43:25.180Z,1020.68
2023-02-15T03:43:57.838Z,1020.67
2023-02-15T03:44:30.316Z,1020.66
2023-02-15T03:45:02.779Z,1020.67
2023-02-15T03:45:35.346Z,1020.67
2023-02-15T03:46:07.826Z,1020.65
2023-02-15T03:46:40.304Z,1020.64
2023-02-15T03:47:12.733Z,1020.63
2023-02-15T03:47:45.251Z,1020.63
2023-02-15T03:48:17.755Z,1020.61
2023-02-15T03:48:50.312Z,1020.62
2023-02-15T03:49:22.739Z,1020.59
2023-02-15T03:49:55.260Z,1020.59
2023-02-15T03:50:27.732Z,1020.59
2023-02-15T03:51:00.222Z,1020.59
2023-02-15T03:51:32.723Z,1020.58
2023-02-15T03:52:05.183Z,1020.60
2023-02-15T03:52:37.652Z,1020.60
2023-02-15T03:53:10.146Z,1020.59
2023-02-15T03:53:42.591Z,1020.58
2023-02-15T03:54:15.033Z,1020.60
2023-02-15T03:54:47.525Z,1020.61
2023-02-15T03:55:19.959Z,1020.62
2023-02-15T03:55:52.434Z,1020.61
2023-02-15T03:56:24.888Z,1020.63
2023-02-15T03:56:57.358Z,1020.63
2023-02-15T03:57:29.837Z,1020.65
2023-02-15T03:58:02.295Z,1020.65
2023-02-15T03:58:34.770Z,1020.66
2023-02-15T03:59:07.228Z,1020.66
2023-02-15T03:59:39.711Z,1020.67
2023-02-15T04:00:12.171Z,1020.66
2023-02-15T04:00:44.690Z,1020.67
2023-02-15T04:01:17.145Z,1020.67
2023-02-15T04:01:49.514Z,1020.66
2023-02-15T04:02:22.029Z,1020.64
2023-02-15T04:02:54.610Z,1020.62
2023-02-15T04:03:27.090Z,1020.60
2023-02-15T04:03:59.569Z,1020.60
2023-02-15T04:04:32.051Z,1020.60
2023-02-15T04:05:04.523Z,1020.61
2023-02-15T04:05:37.020Z,1020.61
2023-02-15T04:06:09.510Z,1020.64
2023-02-15T04:06:41.953Z,1020.65
2023-02-15T04:07:14.430Z,1020.65
2023-02-15T04:07:46.907Z,1020.67
2023-02-15T04:08:19.385Z,1020.66
2023-02-15T04:08:51.885Z,1020.66
2023-02-15T04:09:24.364Z,1020.65
2023-02-15T04:09:56.883Z,1020.66
2023-02-15T04:10:29.388Z,1020.67
2023-02-15T04:11:01.856Z,1020.65
2023-02-15T04:11:34.346Z,1020.65
2023-02-15T04:12:06.810Z,1020.66
2023-02-15T04:12:39.381Z,1020.66
2023-02-15T04:13:11.842Z,1020.66
2023-02-15T04:13:44.336Z,1020.66
2023-02-15T04:14:16.852Z,1020.66
2023-02-15T04:14:49.299Z,1020.66
2023-02-15T04:15:21.754Z,1020.69
2023-02-15T04:15:54.212Z,1020.70
2023-02-15T04:16:26.737Z,1020.70
2023-02-15T04:16:59.185Z,1020.68
2023-02-15T04:17:31.650Z,1020.69
2023-02-15T04:18:04.127Z,1020.69
2023-02-15T04:18:36.584Z,1020.69
2023-02-15T04:19:09.061Z,1020.67
2023-02-15T04:19:41.486Z,1020.68
2023-02-15T04:20:13.982Z,1020.66
2023-02-15T04:20:46.466Z,1020.66
2023-02-15T04:21:18.954Z,1020.66
2023-02-15T04:21:51.404Z,1020.65
2023-02-15T04:22:23.888Z,1020.63
2023-02-15T04:22:56.381Z,1020.63
2023-02-15T04:23:28.859Z,1020.61
2023-02-15T04:24:01.311Z,1020.60
2023-02-15T04:24:33.770Z,1020.58
2023-02-15T04:25:06.209Z,1020.59
2023-02-15T04:25:38.687Z,1020.58
2023-02-15T04:26:11.198Z,1020.58
2023-02-15T04:26:43.701Z,1020.58
2023-02-15T04:27:17.744Z,1020.58
2023-02-15T04:27:48.619Z,1020.55
2023-02-15T04:28:21.070Z,1020.53
2023-02-15T04:28:53.510Z,1020.54
2023-02-15T04:29:25.989Z,1020.54
2023-02-15T04:29:58.519Z,1020.54
2023-02-15T04:30:30.980Z,1020.54
2023-02-15T04:31:03.454Z,1020.56
2023-02-15T04:31:35.988Z,1020.53
2023-02-15T04:32:08.437Z,1020.54
2023-02-15T04:32:40.837Z,1020.53
2023-02-15T04:33:13.297Z,1020.51
2023-02-15T04:33:45.732Z,1020.52
2023-02-15T04:34:18.197Z,1020.52
2023-02-15T04:34:50.663Z,1020.50
2023-02-15T04:35:23.124Z,1020.51
2023-02-15T04:35:55.615Z,1020.49
2023-02-15T04:36:28.166Z,1020.48
2023-02-15T04:37:00.646Z,1020.49
2023-02-15T04:37:33.120Z,1020.48
2023-02-15T04:38:05.662Z,1020.47
2023-02-15T04:38:38.132Z,1020.48
2023-02-15T04:39:10.619Z,1020.49
2023-02-15T04:39:43.087Z,1020.47
2023-02-15T04:40:17.314Z,1020.45
2023-02-15T04:40:48.099Z,1020.46
2023-02-15T04:41:20.607Z,1020.45
2023-02-15T04:41:53.078Z,1020.45
2023-02-15T04:42:25.531Z,1020.46
2023-02-15T04:42:58.011Z,1020.46
2023-02-15T04:43:30.518Z,1020.44
2023-02-15T04:44:02.995Z,1020.43
2023-02-15T04:44:35.463Z,1020.42
2023-02-15T04:45:07.944Z,1020.40
2023-02-15T04:45:40.426Z,1020.40
2023-02-15T04:46:13.036Z,1020.40
2023-02-15T04:46:45.504Z,1020.42
2023-02-15T04:47:17.985Z,1020.41
2023-02-15T04:47:50.535Z,1020.40
2023-02-15T04:48:22.990Z,1020.41
2023-02-15T04:48:55.477Z,1020.41
2023-02-15T04:49:27.934Z,1020.40
2023-02-15T04:50:00.451Z,1020.40
2023-02-15T04:50:32.931Z,1020.40
2023-02-15T04:51:05.391Z,1020.40
2023-02-15T04:51:37.846Z,1020.39
2023-02-15T04:52:10.308Z,1020.38
2023-02-15T04:52:42.821Z,1020.38
2023-02-15T04:53:15.291Z,1020.39
2023-02-15T04:53:47.745Z,1020.40
2023-02-15T04:54:20.243Z,1020.38
2023-02-15T04:54:52.715Z,1020.38
2023-02-15T04:55:25.142Z,1020.38
2023-02-15T04:55:57.603Z,1020.38
2023-02-15T04:56:30.147Z,1020.39
2023-02-15T04:57:02.646Z,1020.39
2023-02-15T04:57:35.104Z,1020.41
2023-02-15T04:58:07.586Z,1020.40
2023-02-15T04:58:40.042Z,1020.38
2023-02-15T04:59:12.515Z,1020.38
2023-02-15T04:59:44.965Z,1020.36
2023-02-15T05:00:17.457Z,1020.37
2023-02-15T05:00:50.017Z,1020.38
2023-02-15T05:01:22.475Z,1020.37
2023-02-15T05:01:54.917Z,1020.36
2023-02-15T05:02:27.399Z,1020.37
2023-02-15T05:02:59.869Z,1020.36
2023-02-15T05:03:32.331Z,1020.37
2023-02-15T05:04:04.831Z,1020.38
2023-02-15T05:04:37.299Z,1020.38
2023-02-15T05:05:09.724Z,1020.38
2023-02-15T05:05:42.212Z,1020.38
2023-02-15T05:06:14.685Z,1020.37
2023-02-15T05:06:47.161Z,1020.38
2023-02-15T05:07:19.612Z,1020.36
2023-02-15T05:07:52.117Z,1020.35
2023-02-15T05:08:24.600Z,1020.34
2023-02-15T05:08:57.132Z,1020.33
2023-02-15T05:09:29.559Z,1020.31
2023-02-15T05:10:02.058Z,1020.30
2023-02-15T05:10:34.520Z,1020.30
2023-02-15T05:11:06.989Z,1020.30
2023-02-15T05:11:39.452Z,1020.29
2023-02-15T05:12:11.928Z,1020.30
2023-02-15T05:12:44.457Z,1020.31
2023-02-15T05:13:16.911Z,1020.31
2023-02-15T05:13:49.379Z,1020.33
2023-02-15T05:14:21.869Z,1020.31
2023-02-15T05:14:54.330Z,1020.31
2023-02-15T05:15:28.509Z,1020.32
2023-02-15T05:16:08.237Z,1020.31
2023-02-15T05:16:40.749Z,1020.33
2023-02-15T05:17:13.142Z,1020.31
2023-02-15T05:17:45.650Z,1020.31
2023-02-15T05:18:18.151Z,1020.30
2023-02-15T05:18:50.615Z,1020.30
2023-02-15T05:19:23.102Z,1020.30
2023-02-15T05:19:55.582Z,1020.30
2023-02-15T05:20:28.049Z,1020.29
2023-02-15T05:21:00.500Z,1020.30
2023-02-15T05:21:32.971Z,1020.28
2023-02-15T05:22:05.497Z,1020.27
2023-02-15T05:22:38.004Z,1020.28
2023-02-15T05:23:10.480Z,1020.27
2023-02-15T05:23:42.969Z,1020.28
2023-02-15T05:24:15.441Z,1020.27
2023-02-15T05:24:47.930Z,1020.27
2023-02-15T05:25:20.413Z,1020.28
2023-02-15T05:25:52.945Z,1020.27
2023-02-15T05:26:25.433Z,1020.27
2023-02-15T05:26:57.919Z,1020.28
2023-02-15T05:27:30.399Z,1020.29
2023-02-15T05:28:05.108Z,1020.29
2023-02-15T05:28:35.394Z,1020.28
2023-02-15T05:29:07.895Z,1020.30
2023-02-15T05:29:40.445Z,1020.27
2023-02-15T05:30:13.129Z,1020.27
2023-02-15T05:30:45.636Z,1020.26
2023-02-15T05:31:18.162Z,1020.28
2023-02-15T05:31:50.544Z,1020.28
2023-02-15T05:32:22.927Z,1020.30
2023-02-15T05:32:55.411Z,1020.31
2023-02-15T05:33:27.877Z,1020.32
2023-02-15T05:34:00.335Z,1020.33
2023-02-15T05:34:32.842Z,1020.34
2023-02-15T05:35:06.103Z,1020.33
2023-02-15T05:35:38.629Z,1020.33
2023-02-15T05:36:11.098Z,1020.33
2023-02-15T05:36:43.580Z,1020.33
2023-02-15T05:37:16.079Z,1020.33
2023-02-15T05:37:48.589Z,1020.32
2023-02-15T05:38:21.123Z,1020.32
2023-02-15T05:38:53.633Z,1020.29
2023-02-15T05:39:26.176Z,1020.29
2023-02-15T05:39:58.638Z,1020.27
2023-02-15T05:40:31.105Z,1020.28
2023-02-15T05:41:03.604Z,1020.27
2023-02-15T05:41:36.150Z,1020.25
2023-02-15T05:42:08.612Z,1020.23
2023-02-15T05:42:41.105Z,1020.21
2023-02-15T05:43:13.588Z,1020.20
2023-02-15T05:43:46.070Z,1020.18
2023-02-15T05:44:18.636Z,1020.18
2023-02-15T05:44:51.145Z,1020.17
2023-02-15T05:45:23.671Z,1020.15
2023-02-15T05:45:56.163Z,1020.12
2023-02-15T05:46:28.695Z,1020.12
2023-02-15T05:47:01.031Z,1020.11
2023-02-15T05:47:33.515Z,1020.11
2023-02-15T05:48:05.984Z,1020.09
2023-02-15T05:48:38.452Z,1020.09
2023-02-15T05:49:10.904Z,1020.10
2023-02-15T05:49:43.406Z,1020.07
2023-02-15T05:50:15.891Z,1020.07
2023-02-15T05:50:48.348Z,1020.06
2023-02-15T05:51:20.829Z,1020.06
2023-02-15T05:51:53.302Z,1020.06
2023-02-15T05:52:25.808Z,1020.04
2023-02-15T05:52:58.311Z,1020.03
2023-02-15T05:53:30.844Z,1020.03
2023-02-15T05:54:03.303Z,1020.01
2023-02-15T05:54:35.820Z,1020.00
2023-02-15T05:55:08.275Z,1020.00
2023-02-15T05:55:40.782Z,1019.99
2023-02-15T05:56:13.311Z,1019.98
2023-02-15T05:56:45.776Z,1019.97
2023-02-15T05:57:18.289Z,1019.97
2023-02-15T05:57:50.788Z,1019.97
2023-02-15T05:58:23.297Z,1019.97
2023-02-15T05:58:55.744Z,1019.96
2023-02-15T05:59:28.196Z,1019.95
2023-02-15T06:00:00.694Z,1019.96
2023-02-15T06:00:33.206Z,1019.96
2023-02-15T06:01:05.703Z,1019.98
2023-02-15T06:01:38.261Z,1019.98
2023-02-15T06:02:10.784Z,1019.99
2023-02-15T06:02:43.423Z,1019.98
2023-02-15T06:03:15.865Z,1020.00
2023-02-15T06:03:48.349Z,1020.00
2023-02-15T06:04:20.778Z,1020.01
2023-02-15T06:04:53.254Z,1020.01
2023-02-15T06:05:25.763Z,1020.01
2023-02-15T06:05:58.237Z,1020.03
2023-02-15T06:06:30.679Z,1020.03
2023-02-15T06:07:03.171Z,1020.04
2023-02-15T06:07:36.308Z,1020.05
2023-02-15T06:08:08.763Z,1020.02
2023-02-15T06:08:41.235Z,1020.04
2023-02-15T06:09:13.733Z,1020.03
2023-02-15T06:09:46.207Z,1020.02
2023-02-15T06:10:18.748Z,1020.02
2023-02-15T06:10:51.249Z,1020.02
2023-02-15T06:11:23.722Z,1020.03
2023-02-15T06:11:56.198Z,1020.02
2023-02-15T06:12:28.683Z,1020.01
2023-02-15T06:13:01.151Z,1020.01
2023-02-15T06:13:34.891Z,1020.01
2023-02-15T06:14:06.185Z,1020.04
2023-02-15T06:14:38.686Z,1020.04
2023-02-15T06:15:11.177Z,1020.06
2023-02-15T06:15:43.714Z,1020.03
2023-02-15T06:16:16.421Z,1020.04
2023-02-15T06:16:48.906Z,1020.02
2023-02-15T06:17:21.467Z,1020.02
2023-02-15T06:17:53.956Z,1020.02
2023-02-15T06:18:26.412Z,1020.02
2023-02-15T06:18:58.958Z,1020.02
2023-02-15T06:19:31.450Z,1020.01
2023-02-15T06:20:03.914Z,1020.01
2023-02-15T06:20:36.362Z,1020.02
2023-02-15T06:21:08.850Z,1020.01
2023-02-15T06:21:41.306Z,1020.02
2023-02-15T06:22:13.842Z,1020.03
2023-02-15T06:22:46.323Z,1020.04
2023-02-15T06:23:18.799Z,1020.05
2023-02-15T06:23:51.289Z,1020.06
2023-02-15T06:24:23.761Z,1020.08
2023-02-15T06:24:56.272Z,1020.09
2023-02-15T06:25:28.771Z,1020.08
2023-02-15T06:26:01.550Z,1020.09
2023-02-15T06:26:33.773Z,1020.08
2023-02-15T06:27:06.246Z,1020.09
2023-02-15T06:27:38.732Z,1020.09
2023-02-15T06:28:11.202Z,1020.09
2023-02-15T06:28:43.665Z,1020.10
2023-02-15T06:29:16.170Z,1020.09
2023-02-15T06:29:48.701Z,1020.07
2023-02-15T06:30:21.231Z,1020.08
2023-02-15T06:30:53.750Z,1020.07
2023-02-15T06:31:26.235Z,1020.07
2023-02-15T06:31:58.669Z,1020.05
2023-02-15T06:32:31.108Z,1020.05
2023-02-15T06:33:03.625Z,1020.04